sensor_id;sensor_type;location;lat;lon;timestamp;pressure;altitude;pressure_sealevel;temperature;humidity
37710;BME280;60223;34.854;-92.408;2023-04-29T00:00:39;99963.05;;;24.52;30.81
37710;BME280;60223;34.854;-92.408;2023-04-29T00:03:02;99967.20;;;24.90;30.63
37710;BME280;60223;34.854;-92.408;2023-04-29T00:05:35;99965.76;;;24.67;30.62
37710;BME280;60223;34.854;-92.408;2023-04-29T00:07:56;99969.77;;;24.58;30.74
37710;BME280;60223;34.854;-92.408;2023-04-29T00:10:21;99965.80;;;24.79;30.82
37710;BME280;60223;34.854;-92.408;2023-04-29T00:12:47;99965.41;;;24.67;30.70
37710;BME280;60223;34.854;-92.408;2023-04-29T00:15:13;99975.81;;;24.81;30.80
37710;BME280;60223;34.854;-92.408;2023-04-29T00:17:38;99981.21;;;24.65;30.72
37710;BME280;60223;34.854;-92.408;2023-04-29T00:20:05;99975.35;;;24.87;30.72
37710;BME280;60223;34.854;-92.408;2023-04-29T00:22:29;99979.75;;;24.76;30.67
37710;BME280;60223;34.854;-92.408;2023-04-29T00:24:55;99990.54;;;24.88;30.62
37710;BME280;60223;34.854;-92.408;2023-04-29T00:27:22;99981.09;;;24.49;31.00
37710;BME280;60223;34.854;-92.408;2023-04-29T00:29:47;99975.90;;;24.73;30.97
37710;BME280;60223;34.854;-92.408;2023-04-29T00:32:13;99973.54;;;24.45;31.03
37710;BME280;60223;34.854;-92.408;2023-04-29T00:34:37;99967.67;;;24.60;30.86
37710;BME280;60223;34.854;-92.408;2023-04-29T00:37:02;99968.69;;;24.78;30.70
37710;BME280;60223;34.854;-92.408;2023-04-29T00:39:30;99978.96;;;25.15;30.44
37710;BME280;60223;34.854;-92.408;2023-04-29T00:41:52;99986.63;;;24.81;30.23
37710;BME280;60223;34.854;-92.408;2023-04-29T00:44:21;99988.10;;;24.90;30.49
37710;BME280;60223;34.854;-92.408;2023-04-29T00:46:47;99988.56;;;24.84;30.50
37710;BME280;60223;34.854;-92.408;2023-04-29T00:49:13;99996.88;;;24.70;30.39
37710;BME280;60223;34.854;-92.408;2023-04-29T00:51:39;100002.51;;;24.91;30.50
37710;BME280;60223;34.854;-92.408;2023-04-29T00:54:02;99997.96;;;24.71;30.89
37710;BME280;60223;34.854;-92.408;2023-04-29T00:56:27;100001.10;;;24.88;30.55
37710;BME280;60223;34.854;-92.408;2023-04-29T00:58:55;100006.05;;;25.22;30.23
37710;BME280;60223;34.854;-92.408;2023-04-29T01:01:21;100007.84;;;25.03;30.37
37710;BME280;60223;34.854;-92.408;2023-04-29T01:03:47;100013.41;;;25.31;29.98
37710;BME280;60223;34.854;-92.408;2023-04-29T01:06:19;100010.52;;;25.02;30.37
37710;BME280;60223;34.854;-92.408;2023-04-29T01:08:46;100002.05;;;25.04;30.32
37710;BME280;60223;34.854;-92.408;2023-04-29T01:11:15;99994.02;;;25.03;30.32
37710;BME280;60223;34.854;-92.408;2023-04-29T01:13:32;99999.28;;;24.78;30.68
37710;BME280;60223;34.854;-92.408;2023-04-29T01:16:00;100005.16;;;24.71;30.72
37710;BME280;60223;34.854;-92.408;2023-04-29T01:18:25;100006.40;;;24.76;30.78
37710;BME280;60223;34.854;-92.408;2023-04-29T01:20:46;100014.32;;;24.96;30.55
37710;BME280;60223;34.854;-92.408;2023-04-29T01:23:10;100028.82;;;25.27;30.50
37710;BME280;60223;34.854;-92.408;2023-04-29T01:25:37;100044.66;;;24.79;30.81
37710;BME280;60223;34.854;-92.408;2023-04-29T01:28:11;100057.09;;;25.00;30.82
37710;BME280;60223;34.854;-92.408;2023-04-29T01:30:37;100066.29;;;24.72;30.67
37710;BME280;60223;34.854;-92.408;2023-04-29T01:32:58;100069.01;;;24.73;30.91
37710;BME280;60223;34.854;-92.408;2023-04-29T01:35:32;100076.24;;;24.98;30.66
37710;BME280;60223;34.854;-92.408;2023-04-29T01:37:54;100075.57;;;24.97;30.52
37710;BME280;60223;34.854;-92.408;2023-04-29T01:40:19;100079.37;;;25.59;29.73
37710;BME280;60223;34.854;-92.408;2023-04-29T01:42:41;100083.08;;;25.02;30.36
37710;BME280;60223;34.854;-92.408;2023-04-29T01:45:04;100083.90;;;25.05;30.37
37710;BME280;60223;34.854;-92.408;2023-04-29T01:47:27;100090.36;;;25.00;30.45
37710;BME280;60223;34.854;-92.408;2023-04-29T01:49:53;100089.03;;;25.35;30.36
37710;BME280;60223;34.854;-92.408;2023-04-29T01:52:19;100094.05;;;25.43;29.91
37710;BME280;60223;34.854;-92.408;2023-04-29T01:54:43;100095.67;;;25.38;29.91
37710;BME280;60223;34.854;-92.408;2023-04-29T01:57:11;100091.02;;;25.65;29.89
37710;BME280;60223;34.854;-92.408;2023-04-29T01:59:36;100084.30;;;25.25;30.09
37710;BME280;60223;34.854;-92.408;2023-04-29T02:02:02;100073.58;;;25.11;30.59
37710;BME280;60223;34.854;-92.408;2023-04-29T02:04:27;100062.65;;;24.90;30.53
37710;BME280;60223;34.854;-92.408;2023-04-29T02:06:53;100059.56;;;24.93;30.51
37710;BME280;60223;34.854;-92.408;2023-04-29T02:09:19;100061.27;;;24.90;30.26
37710;BME280;60223;34.854;-92.408;2023-04-29T02:11:44;100066.34;;;25.18;30.18
37710;BME280;60223;34.854;-92.408;2023-04-29T02:14:14;100070.99;;;25.15;30.21
37710;BME280;60223;34.854;-92.408;2023-04-29T02:16:35;100067.12;;;24.97;30.56
37710;BME280;60223;34.854;-92.408;2023-04-29T02:19:01;100064.35;;;24.86;30.75
37710;BME280;60223;34.854;-92.408;2023-04-29T02:21:28;100067.10;;;24.92;30.66
37710;BME280;60223;34.854;-92.408;2023-04-29T02:23:51;100070.66;;;25.38;30.07
37710;BME280;60223;34.854;-92.408;2023-04-29T02:26:18;100081.15;;;25.37;30.05
37710;BME280;60223;34.854;-92.408;2023-04-29T02:28:43;100089.48;;;24.99;30.18
37710;BME280;60223;34.854;-92.408;2023-04-29T02:31:10;100083.64;;;25.27;30.37
37710;BME280;60223;34.854;-92.408;2023-04-29T02:33:35;100082.91;;;25.23;30.18
37710;BME280;60223;34.854;-92.408;2023-04-29T02:36:01;100083.15;;;25.25;30.17
37710;BME280;60223;34.854;-92.408;2023-04-29T02:38:26;100098.46;;;25.56;30.11
37710;BME280;60223;34.854;-92.408;2023-04-29T02:40:51;100107.31;;;25.75;29.94
37710;BME280;60223;34.854;-92.408;2023-04-29T02:43:17;100110.71;;;25.34;30.10
37710;BME280;60223;34.854;-92.408;2023-04-29T02:45:43;100105.48;;;25.07;30.39
37710;BME280;60223;34.854;-92.408;2023-04-29T02:48:08;100096.92;;;24.90;30.57
37710;BME280;60223;34.854;-92.408;2023-04-29T02:50:35;100099.08;;;24.52;30.69
37710;BME280;60223;34.854;-92.408;2023-04-29T02:53:00;100104.58;;;24.49;30.75
37710;BME280;60223;34.854;-92.408;2023-04-29T02:55:26;100107.85;;;25.12;30.36
37710;BME280;60223;34.854;-92.408;2023-04-29T02:57:51;100108.58;;;24.87;30.62
37710;BME280;60223;34.854;-92.408;2023-04-29T03:00:17;100108.38;;;24.92;30.57
37710;BME280;60223;34.854;-92.408;2023-04-29T03:02:42;100104.02;;;25.06;30.41
37710;BME280;60223;34.854;-92.408;2023-04-29T03:05:08;100103.04;;;25.11;30.38
37710;BME280;60223;34.854;-92.408;2023-04-29T03:07:34;100112.34;;;25.10;30.35
37710;BME280;60223;34.854;-92.408;2023-04-29T03:10:00;100113.89;;;25.20;30.25
37710;BME280;60223;34.854;-92.408;2023-04-29T03:12:25;100118.94;;;25.44;29.95
37710;BME280;60223;34.854;-92.408;2023-04-29T03:14:51;100117.92;;;25.40;30.24
37710;BME280;60223;34.854;-92.408;2023-04-29T03:17:17;100119.29;;;25.25;30.17
37710;BME280;60223;34.854;-92.408;2023-04-29T03:19:42;100119.14;;;25.34;30.08
37710;BME280;60223;34.854;-92.408;2023-04-29T03:22:08;100115.11;;;25.13;30.04
37710;BME280;60223;34.854;-92.408;2023-04-29T03:24:32;100111.01;;;25.51;29.89
37710;BME280;60223;34.854;-92.408;2023-04-29T03:26:59;100107.58;;;24.77;30.38
37710;BME280;60223;34.854;-92.408;2023-04-29T03:29:25;100100.82;;;24.88;30.28
37710;BME280;60223;34.854;-92.408;2023-04-29T03:31:50;100095.61;;;24.81;30.71
37710;BME280;60223;34.854;-92.408;2023-04-29T03:34:16;100096.49;;;24.67;30.65
37710;BME280;60223;34.854;-92.408;2023-04-29T03:36:40;100098.74;;;24.73;30.83
37710;BME280;60223;34.854;-92.408;2023-04-29T03:39:08;100095.48;;;24.76;30.82
37710;BME280;60223;34.854;-92.408;2023-04-29T03:41:33;100091.51;;;24.82;30.76
37710;BME280;60223;34.854;-92.408;2023-04-29T03:43:58;100091.22;;;24.96;30.81
37710;BME280;60223;34.854;-92.408;2023-04-29T03:46:23;100092.20;;;24.91;30.88
37710;BME280;60223;34.854;-92.408;2023-04-29T03:48:50;100091.51;;;24.57;30.97
37710;BME280;60223;34.854;-92.408;2023-04-29T03:51:16;100092.51;;;24.58;30.95
37710;BME280;60223;34.854;-92.408;2023-04-29T03:53:41;100092.81;;;24.61;30.90
37710;BME280;60223;34.854;-92.408;2023-04-29T03:56:07;100089.21;;;24.64;31.14
37710;BME280;60223;34.854;-92.408;2023-04-29T03:58:32;100096.59;;;25.07;30.66
37710;BME280;60223;34.854;-92.408;2023-04-29T04:00:58;100110.33;;;24.76;30.69
37710;BME280;60223;34.854;-92.408;2023-04-29T04:03:24;100115.03;;;24.52;30.68
37710;BME280;60223;34.854;-92.408;2023-04-29T04:05:48;100118.21;;;24.93;30.48
37710;BME280;60223;34.854;-92.408;2023-04-29T04:08:15;100121.69;;;24.98;30.47
37710;BME280;60223;34.854;-92.408;2023-04-29T04:10:41;100125.62;;;25.15;30.53
37710;BME280;60223;34.854;-92.408;2023-04-29T04:13:06;100124.51;;;24.89;30.56
37710;BME280;60223;34.854;-92.408;2023-04-29T04:15:32;100110.89;;;25.22;30.46
37710;BME280;60223;34.854;-92.408;2023-04-29T04:17:55;100102.19;;;24.74;30.63
37710;BME280;60223;34.854;-92.408;2023-04-29T04:20:22;100101.35;;;24.46;30.95
37710;BME280;60223;34.854;-92.408;2023-04-29T04:22:48;100103.86;;;24.54;30.88
37710;BME280;60223;34.854;-92.408;2023-04-29T04:25:13;100110.12;;;25.03;30.59
37710;BME280;60223;34.854;-92.408;2023-04-29T04:27:40;100113.45;;;24.83;30.77
37710;BME280;60223;34.854;-92.408;2023-04-29T04:30:06;100110.49;;;24.54;31.09
37710;BME280;60223;34.854;-92.408;2023-04-29T04:32:30;100108.81;;;24.61;31.02
37710;BME280;60223;34.854;-92.408;2023-04-29T04:34:57;100097.66;;;24.34;31.03
37710;BME280;60223;34.854;-92.408;2023-04-29T04:37:22;100087.24;;;24.50;31.08
37710;BME280;60223;34.854;-92.408;2023-04-29T04:39:47;100084.20;;;24.61;30.98
37710;BME280;60223;34.854;-92.408;2023-04-29T04:42:13;100086.26;;;24.51;31.08
37710;BME280;60223;34.854;-92.408;2023-04-29T04:44:37;100075.85;;;24.46;31.11
37710;BME280;60223;34.854;-92.408;2023-04-29T04:47:03;100066.28;;;24.42;30.90
37710;BME280;60223;34.854;-92.408;2023-04-29T04:49:31;100059.65;;;24.65;30.90
37710;BME280;60223;34.854;-92.408;2023-04-29T04:51:56;100053.76;;;24.39;30.93
37710;BME280;60223;34.854;-92.408;2023-04-29T04:54:22;100043.45;;;24.86;30.82
37710;BME280;60223;34.854;-92.408;2023-04-29T04:56:46;100044.51;;;24.95;30.72
37710;BME280;60223;34.854;-92.408;2023-04-29T04:59:13;100048.89;;;24.70;30.73
37710;BME280;60223;34.854;-92.408;2023-04-29T05:01:39;100046.47;;;24.90;30.71
37710;BME280;60223;34.854;-92.408;2023-04-29T05:04:04;100046.75;;;24.91;30.63
37710;BME280;60223;34.854;-92.408;2023-04-29T05:06:29;100042.39;;;24.79;30.71
37710;BME280;60223;34.854;-92.408;2023-04-29T05:08:56;100036.34;;;24.65;30.84
37710;BME280;60223;34.854;-92.408;2023-04-29T05:11:22;100041.33;;;24.77;30.73
37710;BME280;60223;34.854;-92.408;2023-04-29T05:13:47;100050.04;;;25.08;30.40
37710;BME280;60223;34.854;-92.408;2023-04-29T05:16:13;100054.32;;;24.47;30.79
37710;BME280;60223;34.854;-92.408;2023-04-29T05:18:38;100051.10;;;24.58;30.87
37710;BME280;60223;34.854;-92.408;2023-04-29T05:21:04;100045.63;;;24.29;30.91
37710;BME280;60223;34.854;-92.408;2023-04-29T05:23:30;100039.51;;;24.29;30.90
37710;BME280;60223;34.854;-92.408;2023-04-29T05:25:54;100040.44;;;24.55;30.87
37710;BME280;60223;34.854;-92.408;2023-04-29T05:28:20;100045.80;;;24.40;31.06
37710;BME280;60223;34.854;-92.408;2023-04-29T05:30:49;100055.02;;;24.42;31.01
37710;BME280;60223;34.854;-92.408;2023-04-29T05:33:13;100055.96;;;24.37;31.05
37710;BME280;60223;34.854;-92.408;2023-04-29T05:35:38;100048.99;;;24.58;30.88
37710;BME280;60223;34.854;-92.408;2023-04-29T05:38:03;100038.87;;;24.54;30.89
37710;BME280;60223;34.854;-92.408;2023-04-29T05:40:30;100034.03;;;24.60;30.84
37710;BME280;60223;34.854;-92.408;2023-04-29T05:42:55;100036.14;;;24.58;30.75
37710;BME280;60223;34.854;-92.408;2023-04-29T05:45:21;100030.28;;;24.77;30.83
37710;BME280;60223;34.854;-92.408;2023-04-29T05:47:46;100026.81;;;24.73;30.77
37710;BME280;60223;34.854;-92.408;2023-04-29T05:50:10;100025.02;;;24.81;30.70
37710;BME280;60223;34.854;-92.408;2023-04-29T05:52:37;100024.28;;;24.82;30.67
37710;BME280;60223;34.854;-92.408;2023-04-29T05:55:03;100019.01;;;24.43;30.79
37710;BME280;60223;34.854;-92.408;2023-04-29T05:57:29;100012.58;;;24.57;30.83
37710;BME280;60223;34.854;-92.408;2023-04-29T05:59:54;100003.07;;;24.75;30.59
37710;BME280;60223;34.854;-92.408;2023-04-29T06:02:19;99995.25;;;24.83;30.25
37710;BME280;60223;34.854;-92.408;2023-04-29T06:04:45;99983.42;;;24.65;30.80
37710;BME280;60223;34.854;-92.408;2023-04-29T06:07:11;99979.45;;;24.29;30.86
37710;BME280;60223;34.854;-92.408;2023-04-29T06:09:37;99965.20;;;24.35;31.01
37710;BME280;60223;34.854;-92.408;2023-04-29T06:12:03;99950.86;;;24.32;31.10
37710;BME280;60223;34.854;-92.408;2023-04-29T06:14:27;99947.31;;;24.40;30.96
37710;BME280;60223;34.854;-92.408;2023-04-29T06:16:54;99947.42;;;24.46;30.92
37710;BME280;60223;34.854;-92.408;2023-04-29T06:19:20;99941.84;;;24.34;31.04
37710;BME280;60223;34.854;-92.408;2023-04-29T06:21:45;99940.72;;;24.31;31.10
37710;BME280;60223;34.854;-92.408;2023-04-29T06:24:11;99942.33;;;24.38;30.98
37710;BME280;60223;34.854;-92.408;2023-04-29T06:26:35;99941.08;;;24.28;31.09
37710;BME280;60223;34.854;-92.408;2023-04-29T06:29:02;99934.55;;;24.21;30.89
37710;BME280;60223;34.854;-92.408;2023-04-29T06:31:28;99928.83;;;24.48;30.88
37710;BME280;60223;34.854;-92.408;2023-04-29T06:33:54;99925.07;;;24.52;30.80
37710;BME280;60223;34.854;-92.408;2023-04-29T06:36:19;99922.64;;;24.68;30.77
37710;BME280;60223;34.854;-92.408;2023-04-29T06:38:44;99916.40;;;24.35;30.87
37710;BME280;60223;34.854;-92.408;2023-04-29T06:41:11;99908.93;;;24.41;30.76
37710;BME280;60223;34.854;-92.408;2023-04-29T06:43:36;99898.58;;;24.73;30.70
37710;BME280;60223;34.854;-92.408;2023-04-29T06:46:02;99892.72;;;24.75;30.63
37710;BME280;60223;34.854;-92.408;2023-04-29T06:48:27;99894.04;;;24.88;30.59
37710;BME280;60223;34.854;-92.408;2023-04-29T06:50:54;99888.84;;;24.51;30.97
37710;BME280;60223;34.854;-92.408;2023-04-29T06:53:19;99884.51;;;24.44;31.11
37710;BME280;60223;34.854;-92.408;2023-04-29T06:55:44;99882.56;;;24.55;30.82
37710;BME280;60223;34.854;-92.408;2023-04-29T06:58:08;99876.43;;;24.56;30.49
37710;BME280;60223;34.854;-92.408;2023-04-29T07:00:36;99874.79;;;24.77;30.51
37710;BME280;60223;34.854;-92.408;2023-04-29T07:03:01;99878.40;;;24.67;30.68
37710;BME280;60223;34.854;-92.408;2023-04-29T07:05:27;99881.57;;;24.39;30.91
37710;BME280;60223;34.854;-92.408;2023-04-29T07:07:52;99878.72;;;24.23;31.04
37710;BME280;60223;34.854;-92.408;2023-04-29T07:10:18;99866.26;;;24.12;31.13
37710;BME280;60223;34.854;-92.408;2023-04-29T07:12:44;99850.55;;;24.32;30.94
37710;BME280;60223;34.854;-92.408;2023-04-29T07:15:10;99842.52;;;24.32;30.93
37710;BME280;60223;34.854;-92.408;2023-04-29T07:17:35;99849.55;;;24.20;30.79
37710;BME280;60223;34.854;-92.408;2023-04-29T07:19:59;99855.76;;;24.52;30.93
37710;BME280;60223;34.854;-92.408;2023-04-29T07:22:27;99861.41;;;24.71;30.78
37710;BME280;60223;34.854;-92.408;2023-04-29T07:24:55;99864.77;;;24.51;30.90
37710;BME280;60223;34.854;-92.408;2023-04-29T07:27:18;99866.01;;;24.50;30.94
37710;BME280;60223;34.854;-92.408;2023-04-29T07:29:42;99876.81;;;24.36;30.86
37710;BME280;60223;34.854;-92.408;2023-04-29T07:32:09;99888.38;;;24.53;30.96
37710;BME280;60223;34.854;-92.408;2023-04-29T07:34:35;99897.16;;;24.44;31.01
37710;BME280;60223;34.854;-92.408;2023-04-29T07:37:00;99901.51;;;24.76;30.83
37710;BME280;60223;34.854;-92.408;2023-04-29T07:39:26;99903.52;;;24.43;30.79
37710;BME280;60223;34.854;-92.408;2023-04-29T07:41:52;99907.16;;;24.39;30.74
37710;BME280;60223;34.854;-92.408;2023-04-29T07:44:18;99906.50;;;24.41;30.68
37710;BME280;60223;34.854;-92.408;2023-04-29T07:46:43;99911.72;;;24.54;30.58
37710;BME280;60223;34.854;-92.408;2023-04-29T07:49:09;99908.24;;;24.31;30.87
37710;BME280;60223;34.854;-92.408;2023-04-29T07:51:34;99906.83;;;24.06;30.90
37710;BME280;60223;34.854;-92.408;2023-04-29T07:53:59;99906.39;;;24.17;30.99
37710;BME280;60223;34.854;-92.408;2023-04-29T07:56:26;99901.86;;;24.21;30.97
37710;BME280;60223;34.854;-92.408;2023-04-29T07:58:49;99877.81;;;24.05;31.10
37710;BME280;60223;34.854;-92.408;2023-04-29T08:01:17;99853.32;;;23.94;31.28
37710;BME280;60223;34.854;-92.408;2023-04-29T08:03:43;99839.15;;;24.23;30.96
37710;BME280;60223;34.854;-92.408;2023-04-29T08:06:09;99833.69;;;24.35;30.88
37710;BME280;60223;34.854;-92.408;2023-04-29T08:08:34;99837.90;;;24.78;30.61
37710;BME280;60223;34.854;-92.408;2023-04-29T08:11:00;99843.11;;;24.67;30.75
37710;BME280;60223;34.854;-92.408;2023-04-29T08:13:24;99844.05;;;24.66;30.91
37710;BME280;60223;34.854;-92.408;2023-04-29T08:15:51;99839.94;;;24.48;31.15
37710;BME280;60223;34.854;-92.408;2023-04-29T08:18:17;99833.13;;;24.39;31.23
37710;BME280;60223;34.854;-92.408;2023-04-29T08:20:42;99833.02;;;24.43;31.22
37710;BME280;60223;34.854;-92.408;2023-04-29T08:23:06;99830.09;;;24.26;31.00
37710;BME280;60223;34.854;-92.408;2023-04-29T08:25:34;99816.51;;;24.54;31.00
37710;BME280;60223;34.854;-92.408;2023-04-29T08:27:59;99814.77;;;24.28;31.29
37710;BME280;60223;34.854;-92.408;2023-04-29T08:30:25;99819.64;;;24.43;31.15
37710;BME280;60223;34.854;-92.408;2023-04-29T08:32:49;99823.48;;;24.49;30.91
37710;BME280;60223;34.854;-92.408;2023-04-29T08:35:17;99826.91;;;24.26;30.65
37710;BME280;60223;34.854;-92.408;2023-04-29T08:37:42;99823.27;;;24.35;30.79
37710;BME280;60223;34.854;-92.408;2023-04-29T08:40:09;99822.33;;;24.49;30.60
37710;BME280;60223;34.854;-92.408;2023-04-29T08:42:33;99830.13;;;24.36;30.79
37710;BME280;60223;34.854;-92.408;2023-04-29T08:44:59;99837.49;;;24.36;30.78
37710;BME280;60223;34.854;-92.408;2023-04-29T08:47:24;99841.00;;;24.34;30.78
37710;BME280;60223;34.854;-92.408;2023-04-29T08:49:50;99842.96;;;24.31;30.82
37710;BME280;60223;34.854;-92.408;2023-04-29T08:52:14;99838.65;;;24.14;30.98
37710;BME280;60223;34.854;-92.408;2023-04-29T08:54:41;99838.42;;;24.17;30.95
37710;BME280;60223;34.854;-92.408;2023-04-29T08:57:07;99841.63;;;24.29;30.81
37710;BME280;60223;34.854;-92.408;2023-04-29T08:59:33;99848.68;;;24.74;30.78
37710;BME280;60223;34.854;-92.408;2023-04-29T09:01:59;99849.38;;;24.34;30.85
37710;BME280;60223;34.854;-92.408;2023-04-29T09:04:36;99838.72;;;24.36;30.74
37710;BME280;60223;34.854;-92.408;2023-04-29T09:06:49;99841.82;;;24.25;30.80
37710;BME280;60223;34.854;-92.408;2023-04-29T09:09:16;99842.02;;;24.33;30.66
37710;BME280;60223;34.854;-92.408;2023-04-29T09:11:41;99845.59;;;24.35;30.69
37710;BME280;60223;34.854;-92.408;2023-04-29T09:14:07;99849.12;;;24.31;30.72
37710;BME280;60223;34.854;-92.408;2023-04-29T09:16:32;99856.68;;;24.31;30.77
37710;BME280;60223;34.854;-92.408;2023-04-29T09:18:58;99859.51;;;24.32;30.79
37710;BME280;60223;34.854;-92.408;2023-04-29T09:21:24;99854.46;;;24.22;30.83
37710;BME280;60223;34.854;-92.408;2023-04-29T09:23:50;99846.97;;;24.58;30.38
37710;BME280;60223;34.854;-92.408;2023-04-29T09:26:15;99842.44;;;24.52;30.56
37710;BME280;60223;34.854;-92.408;2023-04-29T09:28:39;99847.09;;;24.30;30.73
37710;BME280;60223;34.854;-92.408;2023-04-29T09:31:07;99850.46;;;24.30;30.67
37710;BME280;60223;34.854;-92.408;2023-04-29T09:33:44;99851.89;;;24.55;30.73
37710;BME280;60223;34.854;-92.408;2023-04-29T09:35:58;99846.69;;;24.33;30.73
37710;BME280;60223;34.854;-92.408;2023-04-29T09:38:22;99842.67;;;24.28;30.72
37710;BME280;60223;34.854;-92.408;2023-04-29T09:40:49;99849.68;;;24.33;30.66
37710;BME280;60223;34.854;-92.408;2023-04-29T09:45:42;99850.59;;;24.42;30.67
37710;BME280;60223;34.854;-92.408;2023-04-29T09:48:07;99851.55;;;24.41;30.77
37710;BME280;60223;34.854;-92.408;2023-04-29T09:50:32;99844.16;;;24.49;30.74
37710;BME280;60223;34.854;-92.408;2023-04-29T09:52:57;99841.45;;;24.39;30.80
37710;BME280;60223;34.854;-92.408;2023-04-29T09:55:23;99830.58;;;24.58;30.62
37710;BME280;60223;34.854;-92.408;2023-04-29T09:57:49;99814.17;;;24.72;30.39
37710;BME280;60223;34.854;-92.408;2023-04-29T10:00:18;99810.22;;;24.61;30.56
37710;BME280;60223;34.854;-92.408;2023-04-29T10:02:44;99807.34;;;24.31;31.01
37710;BME280;60223;34.854;-92.408;2023-04-29T10:05:06;99803.43;;;24.20;31.08
37710;BME280;60223;34.854;-92.408;2023-04-29T10:07:31;99797.74;;;23.92;31.06
37710;BME280;60223;34.854;-92.408;2023-04-29T10:09:56;99786.50;;;24.05;31.20
37710;BME280;60223;34.854;-92.408;2023-04-29T10:12:23;99774.81;;;24.38;30.86
37710;BME280;60223;34.854;-92.408;2023-04-29T10:14:52;99761.02;;;24.44;30.80
37710;BME280;60223;34.854;-92.408;2023-04-29T10:17:24;99734.43;;;24.09;31.22
37710;BME280;60223;34.854;-92.408;2023-04-29T10:19:46;99729.48;;;24.07;31.19
37710;BME280;60223;34.854;-92.408;2023-04-29T10:22:11;99739.59;;;24.11;31.17
37710;BME280;60223;34.854;-92.408;2023-04-29T10:24:31;99753.05;;;24.13;31.10
37710;BME280;60223;34.854;-92.408;2023-04-29T10:26:56;99761.90;;;23.89;30.99
37710;BME280;60223;34.854;-92.408;2023-04-29T10:29:23;99759.46;;;24.04;31.09
37710;BME280;60223;34.854;-92.408;2023-04-29T10:31:49;99765.27;;;24.48;30.95
37710;BME280;60223;34.854;-92.408;2023-04-29T10:34:15;99772.88;;;24.14;31.02
37710;BME280;60223;34.854;-92.408;2023-04-29T10:36:39;99779.77;;;24.16;31.00
37710;BME280;60223;34.854;-92.408;2023-04-29T10:39:08;99774.45;;;24.63;31.04
37710;BME280;60223;34.854;-92.408;2023-04-29T10:41:33;99771.71;;;24.25;30.94
37710;BME280;60223;34.854;-92.408;2023-04-29T10:43:54;99761.74;;;24.31;30.88
37710;BME280;60223;34.854;-92.408;2023-04-29T10:46:23;99759.69;;;24.11;31.08
37710;BME280;60223;34.854;-92.408;2023-04-29T10:48:48;99761.89;;;24.20;30.96
37710;BME280;60223;34.854;-92.408;2023-04-29T10:51:16;99763.66;;;24.38;30.70
37710;BME280;60223;34.854;-92.408;2023-04-29T10:56:08;99786.93;;;24.20;30.70
37710;BME280;60223;34.854;-92.408;2023-04-29T10:58:42;99791.37;;;24.30;30.57
37710;BME280;60223;34.854;-92.408;2023-04-29T11:00:53;99792.72;;;24.10;30.69
37710;BME280;60223;34.854;-92.408;2023-04-29T11:05:48;99785.15;;;24.06;30.71
37710;BME280;60223;34.854;-92.408;2023-04-29T11:08:13;99793.53;;;24.02;30.75
37710;BME280;60223;34.854;-92.408;2023-04-29T11:10:39;99802.41;;;24.05;30.72
37710;BME280;60223;34.854;-92.408;2023-04-29T11:15:30;99816.31;;;24.54;30.70
37710;BME280;60223;34.854;-92.408;2023-04-29T11:17:56;99824.59;;;24.31;30.68
37710;BME280;60223;34.854;-92.408;2023-04-29T11:20:21;99830.58;;;23.77;30.72
37710;BME280;60223;34.854;-92.408;2023-04-29T11:22:51;99838.69;;;24.18;30.62
37710;BME280;60223;34.854;-92.408;2023-04-29T11:25:12;99841.40;;;24.54;30.25
37710;BME280;60223;34.854;-92.408;2023-04-29T11:27:38;99841.11;;;24.38;30.45
37710;BME280;60223;34.854;-92.408;2023-04-29T11:30:04;99845.73;;;24.40;30.45
37710;BME280;60223;34.854;-92.408;2023-04-29T11:32:30;99845.19;;;24.47;30.37
37710;BME280;60223;34.854;-92.408;2023-04-29T11:34:55;99845.69;;;24.56;30.26
37710;BME280;60223;34.854;-92.408;2023-04-29T11:37:25;99844.70;;;24.54;30.25
37710;BME280;60223;34.854;-92.408;2023-04-29T11:39:46;99848.60;;;24.65;30.10
37710;BME280;60223;34.854;-92.408;2023-04-29T11:42:11;99859.61;;;24.67;30.07
37710;BME280;60223;34.854;-92.408;2023-04-29T11:44:37;99876.50;;;24.27;30.53
37710;BME280;60223;34.854;-92.408;2023-04-29T11:47:05;99897.77;;;24.19;30.58
37710;BME280;60223;34.854;-92.408;2023-04-29T11:49:32;99916.19;;;24.08;30.61
37710;BME280;60223;34.854;-92.408;2023-04-29T11:51:54;99926.94;;;23.76;30.73
37710;BME280;60223;34.854;-92.408;2023-04-29T11:54:18;99934.75;;;24.37;30.83
37710;BME280;60223;34.854;-92.408;2023-04-29T11:56:45;99935.58;;;23.96;30.72
37710;BME280;60223;34.854;-92.408;2023-04-29T11:59:11;99942.31;;;24.04;30.62
37710;BME280;60223;34.854;-92.408;2023-04-29T12:01:36;99946.82;;;24.05;30.61
37710;BME280;60223;34.854;-92.408;2023-04-29T12:04:01;99946.99;;;23.90;30.77
37710;BME280;60223;34.854;-92.408;2023-04-29T12:06:30;99950.65;;;24.12;30.50
37710;BME280;60223;34.854;-92.408;2023-04-29T12:08:54;99950.93;;;24.22;30.64
37710;BME280;60223;34.854;-92.408;2023-04-29T12:11:19;99941.83;;;23.80;30.82
37710;BME280;60223;34.854;-92.408;2023-04-29T12:13:44;99927.76;;;23.87;30.73
37710;BME280;60223;34.854;-92.408;2023-04-29T12:16:13;99918.64;;;24.10;30.51
37710;BME280;60223;34.854;-92.408;2023-04-29T12:18:36;99910.15;;;24.33;30.34
37710;BME280;60223;34.854;-92.408;2023-04-29T12:21:02;99905.61;;;24.37;30.24
37710;BME280;60223;34.854;-92.408;2023-04-29T12:23:27;99903.92;;;24.38;30.53
37710;BME280;60223;34.854;-92.408;2023-04-29T12:25:54;99907.96;;;24.03;30.68
37710;BME280;60223;34.854;-92.408;2023-04-29T12:28:19;99913.60;;;23.84;30.58
37710;BME280;60223;34.854;-92.408;2023-04-29T12:30:46;99925.27;;;23.85;30.59
37710;BME280;60223;34.854;-92.408;2023-04-29T12:33:14;99941.54;;;24.31;30.54
37710;BME280;60223;34.854;-92.408;2023-04-29T12:35:36;99961.16;;;23.87;30.69